sensor_id;sensor_type;location;lat;lon;timestamp;P1;durP1;ratioP1;P2;durP2;ratioP2
483;SDS011;228;48.922;12.198;2022-12-07T00:01:32;6.30;;;4.37;;
483;SDS011;228;48.922;12.198;2022-12-07T00:04:01;5.07;;;3.70;;
483;SDS011;228;48.922;12.198;2022-12-07T00:07:03;5.10;;;3.93;;
483;SDS011;228;48.922;12.198;2022-12-07T00:09:22;6.10;;;4.53;;
483;SDS011;228;48.922;12.198;2022-12-07T00:11:49;6.67;;;4.20;;
483;SDS011;228;48.922;12.198;2022-12-07T00:14:16;6.73;;;4.23;;
483;SDS011;228;48.922;12.198;2022-12-07T00:16:43;6.87;;;4.20;;
483;SDS011;228;48.922;12.198;2022-12-07T00:19:11;6.57;;;4.10;;
483;SDS011;228;48.922;12.198;2022-12-07T00:21:38;5.60;;;3.77;;
483;SDS011;228;48.922;12.198;2022-12-07T00:24:05;6.73;;;4.10;;
483;SDS011;228;48.922;12.198;2022-12-07T00:26:33;5.20;;;3.83;;
483;SDS011;228;48.922;12.198;2022-12-07T00:29:07;6.83;;;4.33;;
483;SDS011;228;48.922;12.198;2022-12-07T00:31:44;5.43;;;3.63;;
483;SDS011;228;48.922;12.198;2022-12-07T00:34:14;5.63;;;3.77;;
483;SDS011;228;48.922;12.198;2022-12-07T00:36:46;6.50;;;4.00;;
483;SDS011;228;48.922;12.198;2022-12-07T00:39:13;6.50;;;4.53;;
483;SDS011;228;48.922;12.198;2022-12-07T00:41:39;5.47;;;3.90;;
483;SDS011;228;48.922;12.198;2022-12-07T00:44:05;4.77;;;3.37;;
483;SDS011;228;48.922;12.198;2022-12-07T00:46:31;4.70;;;3.60;;
483;SDS011;228;48.922;12.198;2022-12-07T00:48:57;5.33;;;3.70;;
483;SDS011;228;48.922;12.198;2022-12-07T00:51:24;6.37;;;4.30;;
483;SDS011;228;48.922;12.198;2022-12-07T00:53:51;5.90;;;3.87;;
483;SDS011;228;48.922;12.198;2022-12-07T00:56:19;4.90;;;3.43;;
483;SDS011;228;48.922;12.198;2022-12-07T00:59:06;5.87;;;4.13;;
483;SDS011;228;48.922;12.198;2022-12-07T01:01:33;4.67;;;3.40;;
483;SDS011;228;48.922;12.198;2022-12-07T01:04:02;4.60;;;3.77;;
483;SDS011;228;48.922;12.198;2022-12-07T01:06:28;4.73;;;3.80;;
483;SDS011;228;48.922;12.198;2022-12-07T01:08:55;6.40;;;4.07;;
483;SDS011;228;48.922;12.198;2022-12-07T01:11:23;6.67;;;3.83;;
483;SDS011;228;48.922;12.198;2022-12-07T01:13:52;4.87;;;3.57;;
483;SDS011;228;48.922;12.198;2022-12-07T01:16:21;5.63;;;3.90;;
483;SDS011;228;48.922;12.198;2022-12-07T01:18:49;5.27;;;3.40;;
483;SDS011;228;48.922;12.198;2022-12-07T01:21:19;4.83;;;3.60;;
483;SDS011;228;48.922;12.198;2022-12-07T01:23:48;4.87;;;3.80;;
483;SDS011;228;48.922;12.198;2022-12-07T01:26:16;4.77;;;3.80;;
483;SDS011;228;48.922;12.198;2022-12-07T01:28:46;6.73;;;4.50;;
483;SDS011;228;48.922;12.198;2022-12-07T01:31:13;7.37;;;4.40;;
483;SDS011;228;48.922;12.198;2022-12-07T01:33:46;5.30;;;3.70;;
483;SDS011;228;48.922;12.198;2022-12-07T01:36:16;4.50;;;3.63;;
483;SDS011;228;48.922;12.198;2022-12-07T01:38:43;4.93;;;3.77;;
483;SDS011;228;48.922;12.198;2022-12-07T01:41:12;5.93;;;3.53;;
483;SDS011;228;48.922;12.198;2022-12-07T01:46:39;6.07;;;4.10;;
483;SDS011;228;48.922;12.198;2022-12-07T01:49:08;6.00;;;4.23;;
483;SDS011;228;48.922;12.198;2022-12-07T01:51:48;6.43;;;4.53;;
483;SDS011;228;48.922;12.198;2022-12-07T01:54:18;6.13;;;4.47;;
483;SDS011;228;48.922;12.198;2022-12-07T01:56:48;6.47;;;4.20;;
483;SDS011;228;48.922;12.198;2022-12-07T01:59:18;7.63;;;4.80;;
483;SDS011;228;48.922;12.198;2022-12-07T02:01:47;7.17;;;4.47;;
483;SDS011;228;48.922;12.198;2022-12-07T02:04:13;5.30;;;4.17;;
483;SDS011;228;48.922;12.198;2022-12-07T02:06:40;5.67;;;4.23;;
483;SDS011;228;48.922;12.198;2022-12-07T02:09:08;6.67;;;4.73;;
483;SDS011;228;48.922;12.198;2022-12-07T02:11:34;7.33;;;4.77;;
483;SDS011;228;48.922;12.198;2022-12-07T02:14:00;6.70;;;4.90;;
483;SDS011;228;48.922;12.198;2022-12-07T02:23:00;6.63;;;4.60;;
483;SDS011;228;48.922;12.198;2022-12-07T02:30:55;5.90;;;4.27;;
483;SDS011;228;48.922;12.198;2022-12-07T02:33:29;4.77;;;4.00;;
483;SDS011;228;48.922;12.198;2022-12-07T02:36:12;6.20;;;4.50;;
483;SDS011;228;48.922;12.198;2022-12-07T02:41:29;6.37;;;4.50;;
483;SDS011;228;48.922;12.198;2022-12-07T02:44:02;4.70;;;3.53;;
483;SDS011;228;48.922;12.198;2022-12-07T02:46:38;6.43;;;3.90;;
483;SDS011;228;48.922;12.198;2022-12-07T02:49:11;5.97;;;4.27;;
483;SDS011;228;48.922;12.198;2022-12-07T02:51:39;5.47;;;4.00;;
483;SDS011;228;48.922;12.198;2022-12-07T02:54:10;5.70;;;3.63;;
483;SDS011;228;48.922;12.198;2022-12-07T02:56:41;3.93;;;3.50;;
483;SDS011;228;48.922;12.198;2022-12-07T02:59:29;4.90;;;3.57;;
483;SDS011;228;48.922;12.198;2022-12-07T03:02:24;4.33;;;3.60;;
483;SDS011;228;48.922;12.198;2022-12-07T03:11:45;5.00;;;3.80;;
483;SDS011;228;48.922;12.198;2022-12-07T03:14:24;5.97;;;3.47;;
483;SDS011;228;48.922;12.198;2022-12-07T03:19:27;5.57;;;3.90;;
483;SDS011;228;48.922;12.198;2022-12-07T03:21:55;5.30;;;4.13;;
483;SDS011;228;48.922;12.198;2022-12-07T03:24:30;6.00;;;4.20;;
483;SDS011;228;48.922;12.198;2022-12-07T03:30:43;7.67;;;4.37;;
483;SDS011;228;48.922;12.198;2022-12-07T03:33:41;5.10;;;4.13;;
483;SDS011;228;48.922;12.198;2022-12-07T03:36:26;6.53;;;4.17;;
483;SDS011;228;48.922;12.198;2022-12-07T03:39:03;6.83;;;4.67;;
483;SDS011;228;48.922;12.198;2022-12-07T03:41:53;6.47;;;4.67;;
483;SDS011;228;48.922;12.198;2022-12-07T03:44:21;7.80;;;4.67;;
483;SDS011;228;48.922;12.198;2022-12-07T03:49:31;7.10;;;5.07;;
483;SDS011;228;48.922;12.198;2022-12-07T03:52:16;7.10;;;4.50;;
483;SDS011;228;48.922;12.198;2022-12-07T03:57:36;6.37;;;4.07;;
483;SDS011;228;48.922;12.198;2022-12-07T04:00:06;8.07;;;4.83;;
483;SDS011;228;48.922;12.198;2022-12-07T04:02:39;7.77;;;5.23;;
483;SDS011;228;48.922;12.198;2022-12-07T04:05:07;8.67;;;5.27;;
483;SDS011;228;48.922;12.198;2022-12-07T04:07:34;7.20;;;4.93;;
483;SDS011;228;48.922;12.198;2022-12-07T04:10:00;8.00;;;5.13;;
483;SDS011;228;48.922;12.198;2022-12-07T04:12:26;7.53;;;4.43;;
483;SDS011;228;48.922;12.198;2022-12-07T04:14:52;6.57;;;5.20;;
483;SDS011;228;48.922;12.198;2022-12-07T04:17:18;7.33;;;4.73;;
483;SDS011;228;48.922;12.198;2022-12-07T04:19:44;6.57;;;4.53;;
483;SDS011;228;48.922;12.198;2022-12-07T04:22:10;7.73;;;5.03;;
483;SDS011;228;48.922;12.198;2022-12-07T04:24:36;7.00;;;4.47;;
483;SDS011;228;48.922;12.198;2022-12-07T04:27:02;7.63;;;4.80;;
483;SDS011;228;48.922;12.198;2022-12-07T04:29:28;7.63;;;4.70;;
483;SDS011;228;48.922;12.198;2022-12-07T04:31:54;7.37;;;4.93;;
483;SDS011;228;48.922;12.198;2022-12-07T04:34:21;6.60;;;4.67;;
483;SDS011;228;48.922;12.198;2022-12-07T04:36:47;6.67;;;4.53;;
483;SDS011;228;48.922;12.198;2022-12-07T04:39:21;7.10;;;4.87;;
483;SDS011;228;48.922;12.198;2022-12-07T04:41:50;7.60;;;5.13;;
483;SDS011;228;48.922;12.198;2022-12-07T04:44:17;6.60;;;4.30;;
483;SDS011;228;48.922;12.198;2022-12-07T04:46:44;7.57;;;5.40;;
483;SDS011;228;48.922;12.198;2022-12-07T04:49:10;9.27;;;5.33;;
483;SDS011;228;48.922;12.198;2022-12-07T04:51:37;8.77;;;5.80;;
483;SDS011;228;48.922;12.198;2022-12-07T04:54:03;10.23;;;6.27;;
483;SDS011;228;48.922;12.198;2022-12-07T04:56:30;9.30;;;5.97;;
483;SDS011;228;48.922;12.198;2022-12-07T04:58:56;10.57;;;6.00;;
483;SDS011;228;48.922;12.198;2022-12-07T05:01:23;8.33;;;5.67;;
483;SDS011;228;48.922;12.198;2022-12-07T05:03:50;11.53;;;6.40;;
483;SDS011;228;48.922;12.198;2022-12-07T05:06:16;8.80;;;5.90;;
483;SDS011;228;48.922;12.198;2022-12-07T05:08:42;9.83;;;6.13;;
483;SDS011;228;48.922;12.198;2022-12-07T05:11:09;11.33;;;6.23;;
483;SDS011;228;48.922;12.198;2022-12-07T05:13:56;11.73;;;6.37;;
483;SDS011;228;48.922;12.198;2022-12-07T05:16:22;9.37;;;5.80;;
483;SDS011;228;48.922;12.198;2022-12-07T05:18:48;8.07;;;5.43;;
483;SDS011;228;48.922;12.198;2022-12-07T05:21:14;10.07;;;6.73;;
483;SDS011;228;48.922;12.198;2022-12-07T05:23:40;7.93;;;5.90;;
483;SDS011;228;48.922;12.198;2022-12-07T05:26:06;9.13;;;5.90;;
483;SDS011;228;48.922;12.198;2022-12-07T05:28:32;11.47;;;6.30;;
483;SDS011;228;48.922;12.198;2022-12-07T05:30:58;10.83;;;6.37;;
483;SDS011;228;48.922;12.198;2022-12-07T05:33:25;12.10;;;7.40;;
483;SDS011;228;48.922;12.198;2022-12-07T05:35:51;11.03;;;7.03;;
483;SDS011;228;48.922;12.198;2022-12-07T05:38:18;10.17;;;6.50;;
483;SDS011;228;48.922;12.198;2022-12-07T05:40:44;9.40;;;6.30;;
483;SDS011;228;48.922;12.198;2022-12-07T05:43:10;12.97;;;8.43;;
483;SDS011;228;48.922;12.198;2022-12-07T05:45:36;10.87;;;7.30;;
483;SDS011;228;48.922;12.198;2022-12-07T05:48:02;10.67;;;6.20;;
483;SDS011;228;48.922;12.198;2022-12-07T05:50:28;12.87;;;7.43;;
483;SDS011;228;48.922;12.198;2022-12-07T05:53:00;12.07;;;7.37;;
483;SDS011;228;48.922;12.198;2022-12-07T05:55:26;12.03;;;6.97;;
483;SDS011;228;48.922;12.198;2022-12-07T05:57:52;37.43;;;21.00;;
483;SDS011;228;48.922;12.198;2022-12-07T06:00:37;14.90;;;9.23;;
483;SDS011;228;48.922;12.198;2022-12-07T06:03:02;12.80;;;8.77;;
483;SDS011;228;48.922;12.198;2022-12-07T06:05:29;13.07;;;7.10;;
483;SDS011;228;48.922;12.198;2022-12-07T06:07:54;13.67;;;7.83;;
483;SDS011;228;48.922;12.198;2022-12-07T06:10:20;14.80;;;7.23;;
483;SDS011;228;48.922;12.198;2022-12-07T06:12:46;13.00;;;7.13;;
483;SDS011;228;48.922;12.198;2022-12-07T06:15:12;15.27;;;8.13;;
483;SDS011;228;48.922;12.198;2022-12-07T06:17:39;16.47;;;8.97;;
483;SDS011;228;48.922;12.198;2022-12-07T06:20:05;17.03;;;9.70;;
483;SDS011;228;48.922;12.198;2022-12-07T06:22:32;15.47;;;9.93;;
483;SDS011;228;48.922;12.198;2022-12-07T06:24:58;16.03;;;9.13;;
483;SDS011;228;48.922;12.198;2022-12-07T06:27:24;13.83;;;7.60;;
483;SDS011;228;48.922;12.198;2022-12-07T06:29:50;15.47;;;9.27;;
483;SDS011;228;48.922;12.198;2022-12-07T06:32:16;15.63;;;9.23;;
483;SDS011;228;48.922;12.198;2022-12-07T06:34:42;16.80;;;9.30;;
483;SDS011;228;48.922;12.198;2022-12-07T06:37:08;16.63;;;9.87;;
483;SDS011;228;48.922;12.198;2022-12-07T06:39:34;17.07;;;9.10;;
483;SDS011;228;48.922;12.198;2022-12-07T06:42:00;15.03;;;8.13;;
483;SDS011;228;48.922;12.198;2022-12-07T06:44:26;14.00;;;8.27;;
483;SDS011;228;48.922;12.198;2022-12-07T06:46:52;30.90;;;16.10;;
483;SDS011;228;48.922;12.198;2022-12-07T06:49:18;13.33;;;7.67;;
483;SDS011;228;48.922;12.198;2022-12-07T06:51:44;16.73;;;9.63;;
483;SDS011;228;48.922;12.198;2022-12-07T06:54:11;24.63;;;13.03;;
483;SDS011;228;48.922;12.198;2022-12-07T06:56:39;19.03;;;10.20;;
483;SDS011;228;48.922;12.198;2022-12-07T06:59:05;15.63;;;8.83;;
483;SDS011;228;48.922;12.198;2022-12-07T07:01:32;15.50;;;8.50;;
483;SDS011;228;48.922;12.198;2022-12-07T07:04:00;14.33;;;7.53;;
483;SDS011;228;48.922;12.198;2022-12-07T07:06:26;15.00;;;8.73;;
483;SDS011;228;48.922;12.198;2022-12-07T07:08:52;13.93;;;7.67;;
483;SDS011;228;48.922;12.198;2022-12-07T07:11:19;13.30;;;8.33;;
483;SDS011;228;48.922;12.198;2022-12-07T07:13:45;11.13;;;7.53;;
483;SDS011;228;48.922;12.198;2022-12-07T07:16:11;15.63;;;8.43;;
483;SDS011;228;48.922;12.198;2022-12-07T07:18:37;14.77;;;8.70;;
483;SDS011;228;48.922;12.198;2022-12-07T07:21:03;14.57;;;7.67;;
483;SDS011;228;48.922;12.198;2022-12-07T07:23:30;14.73;;;8.97;;
483;SDS011;228;48.922;12.198;2022-12-07T07:25:56;16.70;;;9.17;;
483;SDS011;228;48.922;12.198;2022-12-07T07:28:22;16.13;;;8.30;;
483;SDS011;228;48.922;12.198;2022-12-07T07:30:48;13.83;;;7.40;;
483;SDS011;228;48.922;12.198;2022-12-07T07:33:14;12.80;;;8.53;;
483;SDS011;228;48.922;12.198;2022-12-07T07:35:42;14.23;;;8.17;;
483;SDS011;228;48.922;12.198;2022-12-07T07:38:09;14.83;;;8.63;;
483;SDS011;228;48.922;12.198;2022-12-07T07:40:35;15.07;;;8.40;;
483;SDS011;228;48.922;12.198;2022-12-07T07:43:02;13.60;;;7.97;;
483;SDS011;228;48.922;12.198;2022-12-07T07:45:28;14.77;;;7.93;;
483;SDS011;228;48.922;12.198;2022-12-07T07:47:54;17.07;;;10.40;;
483;SDS011;228;48.922;12.198;2022-12-07T07:50:21;17.30;;;9.57;;
483;SDS011;228;48.922;12.198;2022-12-07T07:52:48;17.00;;;8.63;;
483;SDS011;228;48.922;12.198;2022-12-07T07:55:14;15.23;;;8.83;;
483;SDS011;228;48.922;12.198;2022-12-07T07:57:40;13.93;;;7.80;;
483;SDS011;228;48.922;12.198;2022-12-07T08:00:07;12.27;;;7.70;;
483;SDS011;228;48.922;12.198;2022-12-07T08:02:40;12.40;;;8.07;;
483;SDS011;228;48.922;12.198;2022-12-07T08:05:08;16.73;;;8.47;;
483;SDS011;228;48.922;12.198;2022-12-07T08:07:36;14.53;;;8.30;;
483;SDS011;228;48.922;12.198;2022-12-07T08:10:02;15.00;;;8.47;;
483;SDS011;228;48.922;12.198;2022-12-07T08:12:29;15.43;;;8.40;;
483;SDS011;228;48.922;12.198;2022-12-07T08:14:55;14.07;;;7.70;;
483;SDS011;228;48.922;12.198;2022-12-07T08:17:21;13.20;;;8.47;;
483;SDS011;228;48.922;12.198;2022-12-07T08:19:47;12.10;;;6.87;;
483;SDS011;228;48.922;12.198;2022-12-07T08:22:13;16.53;;;8.13;;
483;SDS011;228;48.922;12.198;2022-12-07T08:24:39;12.83;;;7.00;;
483;SDS011;228;48.922;12.198;2022-12-07T08:27:05;11.80;;;6.53;;
483;SDS011;228;48.922;12.198;2022-12-07T08:29:31;9.40;;;6.33;;
483;SDS011;228;48.922;12.198;2022-12-07T08:31:57;11.77;;;6.60;;
483;SDS011;228;48.922;12.198;2022-12-07T08:34:25;10.57;;;6.27;;
483;SDS011;228;48.922;12.198;2022-12-07T08:36:51;11.20;;;6.73;;
483;SDS011;228;48.922;12.198;2022-12-07T08:39:17;10.33;;;6.67;;
483;SDS011;228;48.922;12.198;2022-12-07T08:41:43;11.57;;;6.87;;
483;SDS011;228;48.922;12.198;2022-12-07T08:44:09;11.43;;;6.27;;
483;SDS011;228;48.922;12.198;2022-12-07T08:46:40;8.67;;;6.27;;
483;SDS011;228;48.922;12.198;2022-12-07T08:49:19;8.03;;;5.57;;
483;SDS011;228;48.922;12.198;2022-12-07T08:51:53;10.87;;;6.53;;
483;SDS011;228;48.922;12.198;2022-12-07T08:54:20;10.20;;;6.53;;
483;SDS011;228;48.922;12.198;2022-12-07T08:56:47;9.23;;;6.20;;
483;SDS011;228;48.922;12.198;2022-12-07T08:59:16;10.43;;;6.80;;
483;SDS011;228;48.922;12.198;2022-12-07T09:01:44;9.53;;;6.03;;
483;SDS011;228;48.922;12.198;2022-12-07T09:04:10;10.77;;;7.00;;
483;SDS011;228;48.922;12.198;2022-12-07T09:06:36;10.97;;;6.93;;
483;SDS011;228;48.922;12.198;2022-12-07T09:09:03;11.50;;;6.63;;
483;SDS011;228;48.922;12.198;2022-12-07T09:11:31;7.90;;;5.90;;
483;SDS011;228;48.922;12.198;2022-12-07T09:13:58;10.60;;;6.40;;
483;SDS011;228;48.922;12.198;2022-12-07T09:16:24;9.23;;;6.20;;
483;SDS011;228;48.922;12.198;2022-12-07T09:18:50;9.93;;;6.37;;
483;SDS011;228;48.922;12.198;2022-12-07T09:21:16;10.07;;;7.23;;
483;SDS011;228;48.922;12.198;2022-12-07T09:23:42;10.77;;;6.70;;
483;SDS011;228;48.922;12.198;2022-12-07T09:26:08;10.10;;;6.37;;
483;SDS011;228;48.922;12.198;2022-12-07T09:28:34;8.40;;;5.57;;
483;SDS011;228;48.922;12.198;2022-12-07T09:31:02;9.50;;;6.10;;
483;SDS011;228;48.922;12.198;2022-12-07T09:33:29;11.00;;;6.67;;
483;SDS011;228;48.922;12.198;2022-12-07T09:35:55;10.23;;;6.43;;
483;SDS011;228;48.922;12.198;2022-12-07T09:38:21;8.70;;;6.07;;
483;SDS011;228;48.922;12.198;2022-12-07T09:40:47;7.60;;;5.53;;
483;SDS011;228;48.922;12.198;2022-12-07T09:43:18;8.67;;;5.80;;
483;SDS011;228;48.922;12.198;2022-12-07T09:45:47;8.60;;;5.33;;
483;SDS011;228;48.922;12.198;2022-12-07T09:48:21;8.33;;;5.37;;
483;SDS011;228;48.922;12.198;2022-12-07T09:51:00;9.07;;;5.73;;
483;SDS011;228;48.922;12.198;2022-12-07T09:53:34;8.50;;;5.60;;
483;SDS011;228;48.922;12.198;2022-12-07T09:56:03;9.40;;;6.03;;
483;SDS011;228;48.922;12.198;2022-12-07T09:58:30;9.97;;;6.10;;
483;SDS011;228;48.922;12.198;2022-12-07T10:01:08;8.03;;;6.00;;
483;SDS011;228;48.922;12.198;2022-12-07T10:03:41;10.87;;;6.57;;
483;SDS011;228;48.922;12.198;2022-12-07T10:06:15;10.20;;;6.13;;
483;SDS011;228;48.922;12.198;2022-12-07T10:08:41;9.47;;;6.03;;
483;SDS011;228;48.922;12.198;2022-12-07T10:11:11;10.20;;;6.00;;
483;SDS011;228;48.922;12.198;2022-12-07T10:13:41;10.50;;;6.00;;
483;SDS011;228;48.922;12.198;2022-12-07T10:16:45;9.43;;;6.17;;
483;SDS011;228;48.922;12.198;2022-12-07T10:24:30;10.83;;;6.00;;
483;SDS011;228;48.922;12.198;2022-12-07T10:26:57;9.07;;;5.87;;
483;SDS011;228;48.922;12.198;2022-12-07T10:29:24;9.87;;;5.77;;
483;SDS011;228;48.922;12.198;2022-12-07T10:32:01;10.43;;;6.20;;
483;SDS011;228;48.922;12.198;2022-12-07T10:34:40;10.70;;;6.60;;
483;SDS011;228;48.922;12.198;2022-12-07T10:42:20;10.73;;;6.10;;
483;SDS011;228;48.922;12.198;2022-12-07T10:53:23;10.67;;;5.87;;
483;SDS011;228;48.922;12.198;2022-12-07T11:08:09;10.40;;;5.87;;
483;SDS011;228;48.922;12.198;2022-12-07T11:11:27;8.03;;;5.27;;
483;SDS011;228;48.922;12.198;2022-12-07T11:14:02;7.50;;;4.70;;
483;SDS011;228;48.922;12.198;2022-12-07T11:37:31;9.43;;;4.87;;
483;SDS011;228;48.922;12.198;2022-12-07T11:40:04;7.67;;;4.73;;
483;SDS011;228;48.922;12.198;2022-12-07T11:42:41;8.43;;;5.33;;
483;SDS011;228;48.922;12.198;2022-12-07T11:45:26;6.80;;;5.20;;
483;SDS011;228;48.922;12.198;2022-12-07T11:47:57;9.40;;;5.27;;
483;SDS011;228;48.922;12.198;2022-12-07T11:53:39;8.77;;;5.03;;
483;SDS011;228;48.922;12.198;2022-12-07T11:56:12;6.87;;;4.63;;
483;SDS011;228;48.922;12.198;2022-12-07T12:03:49;9.27;;;5.53;;
483;SDS011;228;48.922;12.198;2022-12-07T12:06:18;6.47;;;4.60;;
483;SDS011;228;48.922;12.198;2022-12-07T12:08:54;8.30;;;5.00;;
483;SDS011;228;48.922;12.198;2022-12-07T12:21:04;7.87;;;4.90;;
483;SDS011;228;48.922;12.198;2022-12-07T12:26:17;9.63;;;5.73;;
483;SDS011;228;48.922;12.198;2022-12-07T12:28:54;9.13;;;6.33;;
483;SDS011;228;48.922;12.198;2022-12-07T12:34:29;8.60;;;5.20;;
483;SDS011;228;48.922;12.198;2022-12-07T12:42:48;10.67;;;5.87;;
483;SDS011;228;48.922;12.198;2022-12-07T12:45:22;7.97;;;5.10;;
483;SDS011;228;48.922;12.198;2022-12-07T12:54:04;9.63;;;5.73;;
483;SDS011;228;48.922;12.198;2022-12-07T13:01:47;6.67;;;4.73;;
483;SDS011;228;48.922;12.198;2022-12-07T13:15:35;7.90;;;5.13;;
483;SDS011;228;48.922;12.198;2022-12-07T13:29:15;10.43;;;5.73;;
483;SDS011;228;48.922;12.198;2022-12-07T13:31:55;8.47;;;5.13;;
483;SDS011;228;48.922;12.198;2022-12-07T13:39:57;10.63;;;6.70;;
483;SDS011;228;48.922;12.198;2022-12-07T13:42:29;9.97;;;6.80;;
483;SDS011;228;48.922;12.198;2022-12-07T13:45:16;13.37;;;6.47;;
483;SDS011;228;48.922;12.198;2022-12-07T13:48:19;10.77;;;6.23;;
483;SDS011;228;48.922;12.198;2022-12-07T13:50:52;17.43;;;9.93;;
483;SDS011;228;48.922;12.198;2022-12-07T13:53:20;12.37;;;6.90;;
483;SDS011;228;48.922;12.198;2022-12-07T13:55:46;9.30;;;5.90;;
483;SDS011;228;48.922;12.198;2022-12-07T13:58:12;11.47;;;6.93;;
483;SDS011;228;48.922;12.198;2022-12-07T14:00:39;9.90;;;5.97;;
483;SDS011;228;48.922;12.198;2022-12-07T14:05:43;10.07;;;6.30;;
483;SDS011;228;48.922;12.198;2022-12-07T14:10:53;10.33;;;6.50;;
483;SDS011;228;48.922;12.198;2022-12-07T14:13:34;8.63;;;5.50;;
483;SDS011;228;48.922;12.198;2022-12-07T14:18:51;9.40;;;6.53;;
483;SDS011;228;48.922;12.198;2022-12-07T14:21:22;10.20;;;6.33;;
483;SDS011;228;48.922;12.198;2022-12-07T14:26:47;10.20;;;5.83;;
483;SDS011;228;48.922;12.198;2022-12-07T14:29:19;9.53;;;6.10;;
483;SDS011;228;48.922;12.198;2022-12-07T14:31:55;8.93;;;6.37;;
483;SDS011;228;48.922;12.198;2022-12-07T14:34:38;9.47;;;5.37;;
483;SDS011;228;48.922;12.198;2022-12-07T14:37:07;11.00;;;5.90;;
483;SDS011;228;48.922;12.198;2022-12-07T14:39:34;11.30;;;6.83;;
483;SDS011;228;48.922;12.198;2022-12-07T14:42:00;10.57;;;5.70;;
483;SDS011;228;48.922;12.198;2022-12-07T14:44:26;11.40;;;6.20;;
483;SDS011;228;48.922;12.198;2022-12-07T14:46:54;8.70;;;5.00;;
483;SDS011;228;48.922;12.198;2022-12-07T14:49:20;7.63;;;4.80;;
483;SDS011;228;48.922;12.198;2022-12-07T14:51:46;10.20;;;5.70;;
483;SDS011;228;48.922;12.198;2022-12-07T14:54:19;8.73;;;5.40;;
483;SDS011;228;48.922;12.198;2022-12-07T14:56:55;12.37;;;6.63;;
483;SDS011;228;48.922;12.198;2022-12-07T14:59:21;11.33;;;7.07;;
483;SDS011;228;48.922;12.198;2022-12-07T15:01:47;11.13;;;6.40;;
483;SDS011;228;48.922;12.198;2022-12-07T15:04:13;9.63;;;5.77;;
483;SDS011;228;48.922;12.198;2022-12-07T15:06:39;10.80;;;5.70;;
483;SDS011;228;48.922;12.198;2022-12-07T15:09:10;12.70;;;6.77;;
483;SDS011;228;48.922;12.198;2022-12-07T15:11:36;10.53;;;6.03;;
483;SDS011;228;48.922;12.198;2022-12-07T15:14:02;9.90;;;5.93;;
483;SDS011;228;48.922;12.198;2022-12-07T15:16:36;11.27;;;6.67;;
483;SDS011;228;48.922;12.198;2022-12-07T15:19:05;12.83;;;7.73;;
483;SDS011;228;48.922;12.198;2022-12-07T15:21:51;12.63;;;6.67;;
483;SDS011;228;48.922;12.198;2022-12-07T15:24:18;12.20;;;6.77;;
483;SDS011;228;48.922;12.198;2022-12-07T15:26:44;10.53;;;6.30;;
483;SDS011;228;48.922;12.198;2022-12-07T15:29:11;11.20;;;6.23;;
483;SDS011;228;48.922;12.198;2022-12-07T15:31:39;10.57;;;5.87;;
483;SDS011;228;48.922;12.198;2022-12-07T15:34:05;10.30;;;5.53;;
483;SDS011;228;48.922;12.198;2022-12-07T15:36:32;9.37;;;5.80;;
483;SDS011;228;48.922;12.198;2022-12-07T15:38:59;10.73;;;5.50;;
483;SDS011;228;48.922;12.198;2022-12-07T15:41:25;9.87;;;5.93;;
483;SDS011;228;48.922;12.198;2022-12-07T15:43:52;16.70;;;6.13;;
483;SDS011;228;48.922;12.198;2022-12-07T15:46:37;9.97;;;5.97;;
483;SDS011;228;48.922;12.198;2022-12-07T15:49:10;9.50;;;4.90;;
483;SDS011;228;48.922;12.198;2022-12-07T15:51:40;13.70;;;5.83;;
483;SDS011;228;48.922;12.198;2022-12-07T15:54:07;10.93;;;6.50;;
483;SDS011;228;48.922;12.198;2022-12-07T15:56:47;9.90;;;5.40;;
483;SDS011;228;48.922;12.198;2022-12-07T15:59:13;11.03;;;5.97;;
483;SDS011;228;48.922;12.198;2022-12-07T16:01:40;10.03;;;5.60;;
483;SDS011;228;48.922;12.198;2022-12-07T16:04:06;13.93;;;7.20;;
483;SDS011;228;48.922;12.198;2022-12-07T16:06:32;10.07;;;5.80;;
483;SDS011;228;48.922;12.198;2022-12-07T16:08:59;13.33;;;7.07;;
483;SDS011;228;48.922;12.198;2022-12-07T16:11:25;10.57;;;6.03;;
483;SDS011;228;48.922;12.198;2022-12-07T16:13:51;10.53;;;6.40;;
483;SDS011;228;48.922;12.198;2022-12-07T16:16:18;13.20;;;7.20;;
483;SDS011;228;48.922;12.198;2022-12-07T16:18:47;13.27;;;6.67;;
483;SDS011;228;48.922;12.198;2022-12-07T16:21:15;12.03;;;7.53;;
483;SDS011;228;48.922;12.198;2022-12-07T16:23:42;12.83;;;8.17;;
483;SDS011;228;48.922;12.198;2022-12-07T16:26:19;15.83;;;8.87;;
483;SDS011;228;48.922;12.198;2022-12-07T16:28:50;12.13;;;7.40;;
483;SDS011;228;48.922;12.198;2022-12-07T16:31:18;10.23;;;6.30;;
483;SDS011;228;48.922;12.198;2022-12-07T16:33:48;14.20;;;8.17;;
483;SDS011;228;48.922;12.198;2022-12-07T16:36:16;10.77;;;6.60;;
483;SDS011;228;48.922;12.198;2022-12-07T16:38:43;11.93;;;6.93;;
483;SDS011;228;48.922;12.198;2022-12-07T16:41:10;9.97;;;5.97;;
483;SDS011;228;48.922;12.198;2022-12-07T16:43:36;12.57;;;7.10;;
483;SDS011;228;48.922;12.198;2022-12-07T16:46:03;9.30;;;6.50;;
483;SDS011;228;48.922;12.198;2022-12-07T16:48:29;15.00;;;8.90;;
483;SDS011;228;48.922;12.198;2022-12-07T16:50:56;13.90;;;6.83;;
483;SDS011;228;48.922;12.198;2022-12-07T16:53:23;12.00;;;7.30;;
483;SDS011;228;48.922;12.198;2022-12-07T16:55:50;11.00;;;7.27;;
483;SDS011;228;48.922;12.198;2022-12-07T16:58:17;14.53;;;6.70;;
483;SDS011;228;48.922;12.198;2022-12-07T17:00:43;10.43;;;6.43;;
483;SDS011;228;48.922;12.198;2022-12-07T17:03:10;10.73;;;6.07;;
483;SDS011;228;48.922;12.198;2022-12-07T17:05:38;14.27;;;6.43;;
483;SDS011;228;48.922;12.198;2022-12-07T17:08:06;11.90;;;7.13;;
483;SDS011;228;48.922;12.198;2022-12-07T17:10:33;9.47;;;5.43;;
483;SDS011;228;48.922;12.198;2022-12-07T17:13:02;10.77;;;6.17;;
483;SDS011;228;48.922;12.198;2022-12-07T17:16:03;15.77;;;6.30;;
483;SDS011;228;48.922;12.198;2022-12-07T17:18:35;13.10;;;6.40;;
483;SDS011;228;48.922;12.198;2022-12-07T17:21:05;14.27;;;7.77;;
483;SDS011;228;48.922;12.198;2022-12-07T17:23:35;10.37;;;6.10;;
483;SDS011;228;48.922;12.198;2022-12-07T17:26:12;15.63;;;7.57;;
483;SDS011;228;48.922;12.198;2022-12-07T17:28:45;14.83;;;8.40;;
483;SDS011;228;48.922;12.198;2022-12-07T17:31:12;13.53;;;7.93;;
483;SDS011;228;48.922;12.198;2022-12-07T17:33:42;24.13;;;11.17;;
483;SDS011;228;48.922;12.198;2022-12-07T17:36:09;15.37;;;8.57;;
483;SDS011;228;48.922;12.198;2022-12-07T17:38:36;35.50;;;21.53;;
483;SDS011;228;48.922;12.198;2022-12-07T17:41:13;15.57;;;8.20;;
483;SDS011;228;48.922;12.198;2022-12-07T17:44:03;13.37;;;8.90;;
483;SDS011;228;48.922;12.198;2022-12-07T17:46:33;13.07;;;6.77;;
483;SDS011;228;48.922;12.198;2022-12-07T17:49:00;11.67;;;6.23;;
483;SDS011;228;48.922;12.198;2022-12-07T17:51:27;11.93;;;7.37;;
483;SDS011;228;48.922;12.198;2022-12-07T17:54:11;11.03;;;6.53;;
483;SDS011;228;48.922;12.198;2022-12-07T17:56:38;10.93;;;6.47;;
483;SDS011;228;48.922;12.198;2022-12-07T17:59:04;13.43;;;6.93;;
483;SDS011;228;48.922;12.198;2022-12-07T18:01:31;10.73;;;6.97;;
483;SDS011;228;48.922;12.198;2022-12-07T18:03:58;12.70;;;7.30;;
483;SDS011;228;48.922;12.198;2022-12-07T18:06:24;9.93;;;6.70;;
483;SDS011;228;48.922;12.198;2022-12-07T18:08:50;18.63;;;9.37;;
483;SDS011;228;48.922;12.198;2022-12-07T18:11:17;10.87;;;6.60;;
483;SDS011;228;48.922;12.198;2022-12-07T18:13:43;12.47;;;6.90;;
483;SDS011;228;48.922;12.198;2022-12-07T18:16:13;10.23;;;6.40;;
483;SDS011;228;48.922;12.198;2022-12-07T18:18:46;11.83;;;6.73;;
483;SDS011;228;48.922;12.198;2022-12-07T18:21:14;12.00;;;7.03;;
483;SDS011;228;48.922;12.198;2022-12-07T18:23:43;13.57;;;7.23;;
483;SDS011;228;48.922;12.198;2022-12-07T18:26:12;9.43;;;5.90;;